sensor_id;sensor_type;location;lat;lon;timestamp;temperature;humidity
79140;HTU21D;68546;59.142;37.948;2024-02-23T00:01:31;0.66;61.69
79140;HTU21D;68546;59.142;37.948;2024-02-23T00:03:58;0.68;61.83
79140;HTU21D;68546;59.142;37.948;2024-02-23T00:06:24;0.69;61.76
79140;HTU21D;68546;59.142;37.948;2024-02-23T00:08:54;0.71;61.75
79140;HTU21D;68546;59.142;37.948;2024-02-23T00:11:21;0.69;61.67
79140;HTU21D;68546;59.142;37.948;2024-02-23T00:13:47;0.71;61.63
79140;HTU21D;68546;59.142;37.948;2024-02-23T00:16:14;0.71;61.62
79140;HTU21D;68546;59.142;37.948;2024-02-23T00:18:40;0.72;61.63
79140;HTU21D;68546;59.142;37.948;2024-02-23T00:21:07;0.73;61.57
79140;HTU21D;68546;59.142;37.948;2024-02-23T00:23:33;0.71;61.51
79140;HTU21D;68546;59.142;37.948;2024-02-23T00:26:00;0.72;61.50
79140;HTU21D;68546;59.142;37.948;2024-02-23T00:28:26;0.72;61.57
79140;HTU21D;68546;59.142;37.948;2024-02-23T00:30:53;0.72;61.56
79140;HTU21D;68546;59.142;37.948;2024-02-23T00:33:19;0.72;61.51
79140;HTU21D;68546;59.142;37.948;2024-02-23T00:35:46;0.72;61.41
79140;HTU21D;68546;59.142;37.948;2024-02-23T00:38:13;0.69;61.28
79140;HTU21D;68546;59.142;37.948;2024-02-23T00:40:39;0.69;61.34
79140;HTU21D;68546;59.142;37.948;2024-02-23T00:43:06;0.68;61.37
79140;HTU21D;68546;59.142;37.948;2024-02-23T00:45:32;0.69;61.38
79140;HTU21D;68546;59.142;37.948;2024-02-23T00:47:58;0.68;61.39
79140;HTU21D;68546;59.142;37.948;2024-02-23T00:50:25;0.67;61.38
79140;HTU21D;68546;59.142;37.948;2024-02-23T00:52:55;0.66;61.34
79140;HTU21D;68546;59.142;37.948;2024-02-23T00:55:21;0.66;61.41
79140;HTU21D;68546;59.142;37.948;2024-02-23T00:57:48;0.66;61.50
79140;HTU21D;68546;59.142;37.948;2024-02-23T01:00:14;0.67;61.55
79140;HTU21D;68546;59.142;37.948;2024-02-23T01:02:41;0.68;61.57
79140;HTU21D;68546;59.142;37.948;2024-02-23T01:05:08;0.67;61.55
79140;HTU21D;68546;59.142;37.948;2024-02-23T01:07:35;0.69;61.59
79140;HTU21D;68546;59.142;37.948;2024-02-23T01:10:02;0.68;61.54
79140;HTU21D;68546;59.142;37.948;2024-02-23T01:12:29;0.71;61.51
79140;HTU21D;68546;59.142;37.948;2024-02-23T01:14:56;0.68;61.42
79140;HTU21D;68546;59.142;37.948;2024-02-23T01:17:22;0.69;61.35
79140;HTU21D;68546;59.142;37.948;2024-02-23T01:19:49;0.69;61.34
79140;HTU21D;68546;59.142;37.948;2024-02-23T01:22:16;0.69;61.39
79140;HTU21D;68546;59.142;37.948;2024-02-23T01:24:43;0.69;61.48
79140;HTU21D;68546;59.142;37.948;2024-02-23T01:27:09;0.69;61.52
79140;HTU21D;68546;59.142;37.948;2024-02-23T01:29:36;0.71;61.58
79140;HTU21D;68546;59.142;37.948;2024-02-23T01:32:02;0.71;61.57
79140;HTU21D;68546;59.142;37.948;2024-02-23T01:34:29;0.72;61.45
79140;HTU21D;68546;59.142;37.948;2024-02-23T01:36:55;0.72;61.34
79140;HTU21D;68546;59.142;37.948;2024-02-23T01:39:22;0.71;61.33
79140;HTU21D;68546;59.142;37.948;2024-02-23T01:41:48;0.71;61.28
79140;HTU21D;68546;59.142;37.948;2024-02-23T01:44:15;0.71;61.27
79140;HTU21D;68546;59.142;37.948;2024-02-23T01:46:43;0.69;61.38
79140;HTU21D;68546;59.142;37.948;2024-02-23T01:49:10;0.69;61.44
79140;HTU21D;68546;59.142;37.948;2024-02-23T01:51:37;0.71;61.36
79140;HTU21D;68546;59.142;37.948;2024-02-23T01:54:03;0.71;61.44
79140;HTU21D;68546;59.142;37.948;2024-02-23T01:56:32;0.72;61.43
79140;HTU21D;68546;59.142;37.948;2024-02-23T01:58:59;0.71;61.45
79140;HTU21D;68546;59.142;37.948;2024-02-23T02:01:26;0.73;61.46
79140;HTU21D;68546;59.142;37.948;2024-02-23T02:03:52;0.74;61.47
79140;HTU21D;68546;59.142;37.948;2024-02-23T02:06:19;0.75;61.40
79140;HTU21D;68546;59.142;37.948;2024-02-23T02:08:46;0.75;61.25
79140;HTU21D;68546;59.142;37.948;2024-02-23T02:11:12;0.75;61.09
79140;HTU21D;68546;59.142;37.948;2024-02-23T02:13:39;0.73;61.09
79140;HTU21D;68546;59.142;37.948;2024-02-23T02:16:07;0.72;61.10
79140;HTU21D;68546;59.142;37.948;2024-02-23T02:18:33;0.72;61.20
79140;HTU21D;68546;59.142;37.948;2024-02-23T02:21:00;0.71;61.25
79140;HTU21D;68546;59.142;37.948;2024-02-23T02:23:26;0.71;61.24
79140;HTU21D;68546;59.142;37.948;2024-02-23T02:25:57;0.72;61.29
79140;HTU21D;68546;59.142;37.948;2024-02-23T02:28:24;0.72;61.34
79140;HTU21D;68546;59.142;37.948;2024-02-23T02:30:52;0.73;61.25
79140;HTU21D;68546;59.142;37.948;2024-02-23T02:33:22;0.71;61.12
79140;HTU21D;68546;59.142;37.948;2024-02-23T02:35:49;0.68;61.08
79140;HTU21D;68546;59.142;37.948;2024-02-23T02:38:18;0.67;61.02
79140;HTU21D;68546;59.142;37.948;2024-02-23T02:40:45;0.65;60.99
79140;HTU21D;68546;59.142;37.948;2024-02-23T02:43:11;0.64;61.08
79140;HTU21D;68546;59.142;37.948;2024-02-23T02:45:38;0.62;61.18
79140;HTU21D;68546;59.142;37.948;2024-02-23T02:48:07;0.62;61.32
79140;HTU21D;68546;59.142;37.948;2024-02-23T02:50:34;0.61;61.30
79140;HTU21D;68546;59.142;37.948;2024-02-23T02:53:00;0.60;61.23
79140;HTU21D;68546;59.142;37.948;2024-02-23T02:55:27;0.60;61.27
79140;HTU21D;68546;59.142;37.948;2024-02-23T02:57:53;0.61;61.35
79140;HTU21D;68546;59.142;37.948;2024-02-23T03:00:20;0.61;61.39
79140;HTU21D;68546;59.142;37.948;2024-02-23T03:02:46;0.60;61.41
79140;HTU21D;68546;59.142;37.948;2024-02-23T03:05:13;0.59;61.44
79140;HTU21D;68546;59.142;37.948;2024-02-23T03:07:39;0.60;61.48
79140;HTU21D;68546;59.142;37.948;2024-02-23T03:10:06;0.62;61.51
79140;HTU21D;68546;59.142;37.948;2024-02-23T03:12:33;0.60;61.49
79140;HTU21D;68546;59.142;37.948;2024-02-23T03:14:59;0.60;61.47
79140;HTU21D;68546;59.142;37.948;2024-02-23T03:17:26;0.60;61.50
79140;HTU21D;68546;59.142;37.948;2024-02-23T03:19:52;0.60;61.58
79140;HTU21D;68546;59.142;37.948;2024-02-23T03:22:18;0.62;61.60
79140;HTU21D;68546;59.142;37.948;2024-02-23T03:24:45;0.62;61.56
79140;HTU21D;68546;59.142;37.948;2024-02-23T03:27:11;0.60;61.54
79140;HTU21D;68546;59.142;37.948;2024-02-23T03:29:39;0.62;61.55
79140;HTU21D;68546;59.142;37.948;2024-02-23T03:32:06;0.61;61.55
79140;HTU21D;68546;59.142;37.948;2024-02-23T03:34:32;0.61;61.53
79140;HTU21D;68546;59.142;37.948;2024-02-23T03:36:59;0.59;61.40
79140;HTU21D;68546;59.142;37.948;2024-02-23T03:39:27;0.58;61.34
79140;HTU21D;68546;59.142;37.948;2024-02-23T03:41:54;0.54;61.37
79140;HTU21D;68546;59.142;37.948;2024-02-23T03:44:21;0.51;61.49
79140;HTU21D;68546;59.142;37.948;2024-02-23T03:46:47;0.52;61.59
79140;HTU21D;68546;59.142;37.948;2024-02-23T03:49:14;0.49;61.53
79140;HTU21D;68546;59.142;37.948;2024-02-23T03:51:40;0.49;61.59
79140;HTU21D;68546;59.142;37.948;2024-02-23T03:54:07;0.49;61.70
79140;HTU21D;68546;59.142;37.948;2024-02-23T03:56:41;0.48;61.79
79140;HTU21D;68546;59.142;37.948;2024-02-23T03:59:08;0.48;61.71
79140;HTU21D;68546;59.142;37.948;2024-02-23T04:01:38;0.46;61.79
79140;HTU21D;68546;59.142;37.948;2024-02-23T04:04:05;0.45;61.73
79140;HTU21D;68546;59.142;37.948;2024-02-23T04:06:33;0.44;61.79
79140;HTU21D;68546;59.142;37.948;2024-02-23T04:08:59;0.44;61.88
79140;HTU21D;68546;59.142;37.948;2024-02-23T04:11:26;0.43;61.96
79140;HTU21D;68546;59.142;37.948;2024-02-23T04:13:52;0.42;61.96
79140;HTU21D;68546;59.142;37.948;2024-02-23T04:16:25;0.43;61.96
79140;HTU21D;68546;59.142;37.948;2024-02-23T04:18:52;0.42;61.96
79140;HTU21D;68546;59.142;37.948;2024-02-23T04:21:19;0.40;62.04
79140;HTU21D;68546;59.142;37.948;2024-02-23T04:23:46;0.39;62.15
79140;HTU21D;68546;59.142;37.948;2024-02-23T04:26:13;0.39;62.21
79140;HTU21D;68546;59.142;37.948;2024-02-23T04:28:40;0.42;62.30
79140;HTU21D;68546;59.142;37.948;2024-02-23T04:31:08;0.42;62.34
79140;HTU21D;68546;59.142;37.948;2024-02-23T04:33:36;0.43;62.37
79140;HTU21D;68546;59.142;37.948;2024-02-23T04:36:03;0.43;62.43
79140;HTU21D;68546;59.142;37.948;2024-02-23T04:38:31;0.46;62.44
79140;HTU21D;68546;59.142;37.948;2024-02-23T04:40:58;0.46;62.43
79140;HTU21D;68546;59.142;37.948;2024-02-23T04:43:24;0.46;62.38
79140;HTU21D;68546;59.142;37.948;2024-02-23T04:45:51;0.47;62.36
79140;HTU21D;68546;59.142;37.948;2024-02-23T04:48:18;0.45;62.29
79140;HTU21D;68546;59.142;37.948;2024-02-23T04:50:44;0.47;62.34
79140;HTU21D;68546;59.142;37.948;2024-02-23T04:53:11;0.48;62.47
79140;HTU21D;68546;59.142;37.948;2024-02-23T04:55:37;0.49;62.52
79140;HTU21D;68546;59.142;37.948;2024-02-23T04:58:04;0.49;62.45
79140;HTU21D;68546;59.142;37.948;2024-02-23T05:00:31;0.51;62.44
79140;HTU21D;68546;59.142;37.948;2024-02-23T05:03:02;0.51;62.55
79140;HTU21D;68546;59.142;37.948;2024-02-23T05:05:32;0.52;62.60
79140;HTU21D;68546;59.142;37.948;2024-02-23T05:07:59;0.52;62.50
79140;HTU21D;68546;59.142;37.948;2024-02-23T05:10:25;0.55;62.58
79140;HTU21D;68546;59.142;37.948;2024-02-23T05:12:52;0.55;62.56
79140;HTU21D;68546;59.142;37.948;2024-02-23T05:15:18;0.58;62.55
79140;HTU21D;68546;59.142;37.948;2024-02-23T05:17:45;0.59;62.48
79140;HTU21D;68546;59.142;37.948;2024-02-23T05:20:12;0.59;62.41
79140;HTU21D;68546;59.142;37.948;2024-02-23T05:22:39;0.60;62.41
79140;HTU21D;68546;59.142;37.948;2024-02-23T05:25:06;0.60;62.38
79140;HTU21D;68546;59.142;37.948;2024-02-23T05:27:33;0.61;62.47
79140;HTU21D;68546;59.142;37.948;2024-02-23T05:29:59;0.63;62.62
79140;HTU21D;68546;59.142;37.948;2024-02-23T05:32:26;0.64;62.65
79140;HTU21D;68546;59.142;37.948;2024-02-23T05:34:53;0.67;62.63
79140;HTU21D;68546;59.142;37.948;2024-02-23T05:37:20;0.69;62.52
79140;HTU21D;68546;59.142;37.948;2024-02-23T05:39:47;0.68;62.54
79140;HTU21D;68546;59.142;37.948;2024-02-23T05:42:13;0.73;62.61
79140;HTU21D;68546;59.142;37.948;2024-02-23T05:44:42;0.75;62.54
79140;HTU21D;68546;59.142;37.948;2024-02-23T05:47:09;0.76;62.49
79140;HTU21D;68546;59.142;37.948;2024-02-23T05:49:36;0.76;62.41
79140;HTU21D;68546;59.142;37.948;2024-02-23T05:52:02;0.78;62.49
79140;HTU21D;68546;59.142;37.948;2024-02-23T05:54:29;0.79;62.52
79140;HTU21D;68546;59.142;37.948;2024-02-23T05:56:55;0.83;62.51
79140;HTU21D;68546;59.142;37.948;2024-02-23T05:59:22;0.83;62.49
79140;HTU21D;68546;59.142;37.948;2024-02-23T06:01:48;0.86;62.46
79140;HTU21D;68546;59.142;37.948;2024-02-23T06:04:15;0.88;62.44
79140;HTU21D;68546;59.142;37.948;2024-02-23T06:06:41;0.88;62.38
79140;HTU21D;68546;59.142;37.948;2024-02-23T06:09:09;0.91;62.41
79140;HTU21D;68546;59.142;37.948;2024-02-23T06:11:36;0.92;62.36
79140;HTU21D;68546;59.142;37.948;2024-02-23T06:14:02;0.93;62.35
79140;HTU21D;68546;59.142;37.948;2024-02-23T06:16:29;0.95;62.37
79140;HTU21D;68546;59.142;37.948;2024-02-23T06:18:55;0.95;62.31
79140;HTU21D;68546;59.142;37.948;2024-02-23T06:21:22;0.97;62.21
79140;HTU21D;68546;59.142;37.948;2024-02-23T06:23:48;0.98;62.25
79140;HTU21D;68546;59.142;37.948;2024-02-23T06:26:15;1.01;62.27
79140;HTU21D;68546;59.142;37.948;2024-02-23T06:28:42;1.03;62.28
79140;HTU21D;68546;59.142;37.948;2024-02-23T06:31:09;1.05;62.25
79140;HTU21D;68546;59.142;37.948;2024-02-23T06:33:36;1.05;62.25
79140;HTU21D;68546;59.142;37.948;2024-02-23T06:36:02;1.07;62.31
79140;HTU21D;68546;59.142;37.948;2024-02-23T06:38:30;1.10;62.23
79140;HTU21D;68546;59.142;37.948;2024-02-23T06:40:56;1.12;62.15
79140;HTU21D;68546;59.142;37.948;2024-02-23T06:43:23;1.13;62.19
79140;HTU21D;68546;59.142;37.948;2024-02-23T06:45:50;1.14;62.11
79140;HTU21D;68546;59.142;37.948;2024-02-23T06:48:17;1.16;62.12
79140;HTU21D;68546;59.142;37.948;2024-02-23T06:50:43;1.20;62.15
79140;HTU21D;68546;59.142;37.948;2024-02-23T06:53:10;1.22;62.15
79140;HTU21D;68546;59.142;37.948;2024-02-23T06:55:37;1.23;61.99
79140;HTU21D;68546;59.142;37.948;2024-02-23T06:58:03;1.25;61.97
79140;HTU21D;68546;59.142;37.948;2024-02-23T07:00:31;1.26;61.88
79140;HTU21D;68546;59.142;37.948;2024-02-23T07:02:57;1.28;61.92
79140;HTU21D;68546;59.142;37.948;2024-02-23T07:05:29;1.28;61.79
79140;HTU21D;68546;59.142;37.948;2024-02-23T07:07:56;1.28;61.80
79140;HTU21D;68546;59.142;37.948;2024-02-23T07:10:23;1.31;61.86
79140;HTU21D;68546;59.142;37.948;2024-02-23T07:12:51;1.31;61.89
79140;HTU21D;68546;59.142;37.948;2024-02-23T07:15:22;1.35;61.92
79140;HTU21D;68546;59.142;37.948;2024-02-23T07:17:48;1.37;61.92
79140;HTU21D;68546;59.142;37.948;2024-02-23T07:20:15;1.38;61.83
79140;HTU21D;68546;59.142;37.948;2024-02-23T07:22:45;1.41;61.81
79140;HTU21D;68546;59.142;37.948;2024-02-23T07:25:16;1.43;61.83
79140;HTU21D;68546;59.142;37.948;2024-02-23T07:27:44;1.46;61.71
79140;HTU21D;68546;59.142;37.948;2024-02-23T07:30:11;1.47;61.65
79140;HTU21D;68546;59.142;37.948;2024-02-23T07:32:38;1.51;61.73
79140;HTU21D;68546;59.142;37.948;2024-02-23T07:35:05;1.52;61.65
79140;HTU21D;68546;59.142;37.948;2024-02-23T07:37:31;1.55;61.54
79140;HTU21D;68546;59.142;37.948;2024-02-23T07:39:58;1.57;61.72
79140;HTU21D;68546;59.142;37.948;2024-02-23T07:42:24;1.64;61.81
79140;HTU21D;68546;59.142;37.948;2024-02-23T07:44:51;1.69;61.84
79140;HTU21D;68546;59.142;37.948;2024-02-23T07:47:18;1.76;61.72
79140;HTU21D;68546;59.142;37.948;2024-02-23T07:49:44;1.81;61.65
79140;HTU21D;68546;59.142;37.948;2024-02-23T07:52:11;1.86;61.60
79140;HTU21D;68546;59.142;37.948;2024-02-23T07:54:39;1.91;61.45
79140;HTU21D;68546;59.142;37.948;2024-02-23T07:57:05;1.95;61.15
79140;HTU21D;68546;59.142;37.948;2024-02-23T07:59:32;1.99;61.21
79140;HTU21D;68546;59.142;37.948;2024-02-23T08:01:59;2.05;61.20
79140;HTU21D;68546;59.142;37.948;2024-02-23T08:04:25;2.07;60.88
79140;HTU21D;68546;59.142;37.948;2024-02-23T08:06:52;2.10;60.73
79140;HTU21D;68546;59.142;37.948;2024-02-23T08:09:19;2.11;60.66
79140;HTU21D;68546;59.142;37.948;2024-02-23T08:11:48;2.13;60.60
79140;HTU21D;68546;59.142;37.948;2024-02-23T08:14:15;2.16;60.47
79140;HTU21D;68546;59.142;37.948;2024-02-23T08:16:42;2.17;60.18
79140;HTU21D;68546;59.142;37.948;2024-02-23T08:19:08;2.16;60.13
79140;HTU21D;68546;59.142;37.948;2024-02-23T08:21:35;2.19;60.17
79140;HTU21D;68546;59.142;37.948;2024-02-23T08:24:02;2.19;60.15
79140;HTU21D;68546;59.142;37.948;2024-02-23T08:26:29;2.20;60.17
79140;HTU21D;68546;59.142;37.948;2024-02-23T08:28:56;2.20;59.88
79140;HTU21D;68546;59.142;37.948;2024-02-23T08:31:22;2.20;59.90
79140;HTU21D;68546;59.142;37.948;2024-02-23T08:33:49;2.17;59.90
79140;HTU21D;68546;59.142;37.948;2024-02-23T08:36:15;2.17;59.97
79140;HTU21D;68546;59.142;37.948;2024-02-23T08:38:42;2.20;60.12
79140;HTU21D;68546;59.142;37.948;2024-02-23T08:41:08;2.23;60.20
79140;HTU21D;68546;59.142;37.948;2024-02-23T08:43:35;2.27;60.33
79140;HTU21D;68546;59.142;37.948;2024-02-23T08:46:02;2.30;60.26
79140;HTU21D;68546;59.142;37.948;2024-02-23T08:48:29;2.35;60.20
79140;HTU21D;68546;59.142;37.948;2024-02-23T08:50:55;2.38;60.09
79140;HTU21D;68546;59.142;37.948;2024-02-23T08:53:22;2.41;60.04
79140;HTU21D;68546;59.142;37.948;2024-02-23T08:55:48;2.43;60.17
79140;HTU21D;68546;59.142;37.948;2024-02-23T08:58:15;2.47;60.19
79140;HTU21D;68546;59.142;37.948;2024-02-23T09:00:42;2.53;60.25
79140;HTU21D;68546;59.142;37.948;2024-02-23T09:03:08;2.59;60.18
79140;HTU21D;68546;59.142;37.948;2024-02-23T09:05:35;2.62;59.99
79140;HTU21D;68546;59.142;37.948;2024-02-23T09:08:02;2.67;59.80
79140;HTU21D;68546;59.142;37.948;2024-02-23T09:10:28;2.70;59.79
79140;HTU21D;68546;59.142;37.948;2024-02-23T09:12:56;2.73;59.73
79140;HTU21D;68546;59.142;37.948;2024-02-23T09:15:22;2.76;59.53
79140;HTU21D;68546;59.142;37.948;2024-02-23T09:17:49;2.80;59.52
79140;HTU21D;68546;59.142;37.948;2024-02-23T09:20:17;2.84;59.40
79140;HTU21D;68546;59.142;37.948;2024-02-23T09:22:44;2.88;59.36
79140;HTU21D;68546;59.142;37.948;2024-02-23T09:25:11;2.94;59.22
79140;HTU21D;68546;59.142;37.948;2024-02-23T09:27:37;2.97;59.28
79140;HTU21D;68546;59.142;37.948;2024-02-23T09:30:12;3.01;59.34
79140;HTU21D;68546;59.142;37.948;2024-02-23T09:32:38;3.06;59.29
79140;HTU21D;68546;59.142;37.948;2024-02-23T09:35:05;3.10;59.01
79140;HTU21D;68546;59.142;37.948;2024-02-23T09:37:33;3.14;58.90
79140;HTU21D;68546;59.142;37.948;2024-02-23T09:39:59;3.14;58.74
79140;HTU21D;68546;59.142;37.948;2024-02-23T09:42:28;3.16;58.80
79140;HTU21D;68546;59.142;37.948;2024-02-23T09:45:00;3.18;58.81
79140;HTU21D;68546;59.142;37.948;2024-02-23T09:47:27;3.19;58.70
79140;HTU21D;68546;59.142;37.948;2024-02-23T09:49:55;3.21;58.71
79140;HTU21D;68546;59.142;37.948;2024-02-23T09:52:22;3.25;58.69
79140;HTU21D;68546;59.142;37.948;2024-02-23T09:54:52;3.26;58.64
79140;HTU21D;68546;59.142;37.948;2024-02-23T09:57:19;3.27;58.69
79140;HTU21D;68546;59.142;37.948;2024-02-23T09:59:48;3.30;58.51
79140;HTU21D;68546;59.142;37.948;2024-02-23T10:02:16;3.28;58.62
79140;HTU21D;68546;59.142;37.948;2024-02-23T10:04:43;3.30;58.48
79140;HTU21D;68546;59.142;37.948;2024-02-23T10:07:10;3.30;58.52
79140;HTU21D;68546;59.142;37.948;2024-02-23T10:09:40;3.31;58.54
79140;HTU21D;68546;59.142;37.948;2024-02-23T10:12:07;3.31;58.70
79140;HTU21D;68546;59.142;37.948;2024-02-23T10:14:34;3.33;58.66
79140;HTU21D;68546;59.142;37.948;2024-02-23T10:17:01;3.33;58.70
79140;HTU21D;68546;59.142;37.948;2024-02-23T10:19:28;3.35;58.78
79140;HTU21D;68546;59.142;37.948;2024-02-23T10:21:56;3.36;58.75
79140;HTU21D;68546;59.142;37.948;2024-02-23T10:24:23;3.35;58.77
79140;HTU21D;68546;59.142;37.948;2024-02-23T10:26:52;3.38;58.79
79140;HTU21D;68546;59.142;37.948;2024-02-23T10:29:19;3.39;58.76
79140;HTU21D;68546;59.142;37.948;2024-02-23T10:31:47;3.39;58.68
79140;HTU21D;68546;59.142;37.948;2024-02-23T10:34:19;3.39;58.82
79140;HTU21D;68546;59.142;37.948;2024-02-23T10:36:46;3.41;58.83
79140;HTU21D;68546;59.142;37.948;2024-02-23T10:39:18;3.41;58.63
79140;HTU21D;68546;59.142;37.948;2024-02-23T10:41:57;3.39;58.70
79140;HTU21D;68546;59.142;37.948;2024-02-23T10:44:28;3.39;58.90
79140;HTU21D;68546;59.142;37.948;2024-02-23T10:46:55;3.41;58.97
79140;HTU21D;68546;59.142;37.948;2024-02-23T10:49:23;3.43;58.85
79140;HTU21D;68546;59.142;37.948;2024-02-23T10:51:54;3.42;58.68
79140;HTU21D;68546;59.142;37.948;2024-02-23T10:54:20;3.41;58.63
79140;HTU21D;68546;59.142;37.948;2024-02-23T10:56:49;3.41;58.71
79140;HTU21D;68546;59.142;37.948;2024-02-23T10:59:17;3.41;58.87
79140;HTU21D;68546;59.142;37.948;2024-02-23T11:01:49;3.41;58.93
79140;HTU21D;68546;59.142;37.948;2024-02-23T11:04:17;3.42;58.77
79140;HTU21D;68546;59.142;37.948;2024-02-23T11:06:50;3.41;58.70
79140;HTU21D;68546;59.142;37.948;2024-02-23T11:09:21;3.39;58.63
79140;HTU21D;68546;59.142;37.948;2024-02-23T11:11:55;3.38;58.67
79140;HTU21D;68546;59.142;37.948;2024-02-23T11:14:32;3.36;58.80
79140;HTU21D;68546;59.142;37.948;2024-02-23T11:16:59;3.34;58.80
79140;HTU21D;68546;59.142;37.948;2024-02-23T11:19:37;3.35;58.87
79140;HTU21D;68546;59.142;37.948;2024-02-23T11:22:05;3.35;58.96
79140;HTU21D;68546;59.142;37.948;2024-02-23T11:24:32;3.34;58.96
79140;HTU21D;68546;59.142;37.948;2024-02-23T11:27:01;3.33;58.92
79140;HTU21D;68546;59.142;37.948;2024-02-23T11:29:37;3.33;58.83
79140;HTU21D;68546;59.142;37.948;2024-02-23T11:32:15;3.32;58.80
79140;HTU21D;68546;59.142;37.948;2024-02-23T11:34:53;3.31;58.96
79140;HTU21D;68546;59.142;37.948;2024-02-23T11:37:20;3.31;59.08
79140;HTU21D;68546;59.142;37.948;2024-02-23T11:39:47;3.32;59.12
79140;HTU21D;68546;59.142;37.948;2024-02-23T11:42:14;3.32;59.13
79140;HTU21D;68546;59.142;37.948;2024-02-23T11:44:41;3.32;59.12
79140;HTU21D;68546;59.142;37.948;2024-02-23T11:47:07;3.35;59.13
79140;HTU21D;68546;59.142;37.948;2024-02-23T11:49:37;3.36;59.22
79140;HTU21D;68546;59.142;37.948;2024-02-23T11:52:04;3.38;59.19
79140;HTU21D;68546;59.142;37.948;2024-02-23T11:54:31;3.39;59.03
79140;HTU21D;68546;59.142;37.948;2024-02-23T11:56:57;3.40;58.93
79140;HTU21D;68546;59.142;37.948;2024-02-23T11:59:25;3.40;58.97
79140;HTU21D;68546;59.142;37.948;2024-02-23T12:01:51;3.40;58.96
79140;HTU21D;68546;59.142;37.948;2024-02-23T12:04:18;3.41;59.00
79140;HTU21D;68546;59.142;37.948;2024-02-23T12:06:44;3.44;59.06
79140;HTU21D;68546;59.142;37.948;2024-02-23T12:09:12;3.46;59.19
79140;HTU21D;68546;59.142;37.948;2024-02-23T12:11:39;3.49;59.28
79140;HTU21D;68546;59.142;37.948;2024-02-23T12:14:06;3.54;59.17
79140;HTU21D;68546;59.142;37.948;2024-02-23T12:16:35;3.55;59.06
79140;HTU21D;68546;59.142;37.948;2024-02-23T12:19:02;3.58;58.96
79140;HTU21D;68546;59.142;37.948;2024-02-23T12:21:29;3.60;58.89
79140;HTU21D;68546;59.142;37.948;2024-02-23T12:23:56;3.62;58.80
79140;HTU21D;68546;59.142;37.948;2024-02-23T12:26:22;3.63;58.67
79140;HTU21D;68546;59.142;37.948;2024-02-23T12:28:49;3.64;58.64
79140;HTU21D;68546;59.142;37.948;2024-02-23T12:31:16;3.67;58.61
79140;HTU21D;68546;59.142;37.948;2024-02-23T12:33:50;3.69;58.47
79140;HTU21D;68546;59.142;37.948;2024-02-23T12:36:16;3.69;58.54
79140;HTU21D;68546;59.142;37.948;2024-02-23T12:38:43;3.70;58.33
79140;HTU21D;68546;59.142;37.948;2024-02-23T12:41:10;3.69;58.25
79140;HTU21D;68546;59.142;37.948;2024-02-23T12:43:37;3.68;58.28
79140;HTU21D;68546;59.142;37.948;2024-02-23T12:46:04;3.68;58.40
79140;HTU21D;68546;59.142;37.948;2024-02-23T12:48:30;3.69;58.36
79140;HTU21D;68546;59.142;37.948;2024-02-23T12:50:57;3.68;58.41
79140;HTU21D;68546;59.142;37.948;2024-02-23T12:53:40;3.68;58.42
79140;HTU21D;68546;59.142;37.948;2024-02-23T12:56:08;3.65;58.32
79140;HTU21D;68546;59.142;37.948;2024-02-23T12:58:36;3.65;58.23
79140;HTU21D;68546;59.142;37.948;2024-02-23T13:01:03;3.63;58.19
79140;HTU21D;68546;59.142;37.948;2024-02-23T13:03:31;3.61;58.21
79140;HTU21D;68546;59.142;37.948;2024-02-23T13:05:58;3.61;58.29
79140;HTU21D;68546;59.142;37.948;2024-02-23T13:08:25;3.61;58.34
79140;HTU21D;68546;59.142;37.948;2024-02-23T13:10:53;3.59;58.43
79140;HTU21D;68546;59.142;37.948;2024-02-23T13:13:21;3.58;58.48
79140;HTU21D;68546;59.142;37.948;2024-02-23T13:15:49;3.57;58.50
79140;HTU21D;68546;59.142;37.948;2024-02-23T13:18:15;3.56;58.49
79140;HTU21D;68546;59.142;37.948;2024-02-23T13:20:42;3.55;58.43
79140;HTU21D;68546;59.142;37.948;2024-02-23T13:23:10;3.52;58.47
79140;HTU21D;68546;59.142;37.948;2024-02-23T13:25:39;3.52;58.43
79140;HTU21D;68546;59.142;37.948;2024-02-23T13:28:07;3.47;58.45
79140;HTU21D;68546;59.142;37.948;2024-02-23T13:30:35;3.45;58.60
79140;HTU21D;68546;59.142;37.948;2024-02-23T13:33:02;3.43;58.66
79140;HTU21D;68546;59.142;37.948;2024-02-23T13:35:29;3.41;58.70
79140;HTU21D;68546;59.142;37.948;2024-02-23T13:37:56;3.40;58.78
79140;HTU21D;68546;59.142;37.948;2024-02-23T13:40:23;3.36;58.81
79140;HTU21D;68546;59.142;37.948;2024-02-23T13:42:50;3.33;58.87
79140;HTU21D;68546;59.142;37.948;2024-02-23T13:45:19;3.32;58.96
79140;HTU21D;68546;59.142;37.948;2024-02-23T13:47:59;3.30;59.08
79140;HTU21D;68546;59.142;37.948;2024-02-23T13:50:27;3.28;59.19
79140;HTU21D;68546;59.142;37.948;2024-02-23T13:52:54;3.29;59.32
79140;HTU21D;68546;59.142;37.948;2024-02-23T13:55:20;3.28;59.31
79140;HTU21D;68546;59.142;37.948;2024-02-23T13:57:48;3.27;59.37
79140;HTU21D;68546;59.142;37.948;2024-02-23T14:00:16;3.26;59.41
79140;HTU21D;68546;59.142;37.948;2024-02-23T14:02:44;3.25;59.44
79140;HTU21D;68546;59.142;37.948;2024-02-23T14:05:11;3.24;59.54
79140;HTU21D;68546;59.142;37.948;2024-02-23T14:07:38;3.21;59.65
79140;HTU21D;68546;59.142;37.948;2024-02-23T14:10:06;3.23;59.75
79140;HTU21D;68546;59.142;37.948;2024-02-23T14:12:32;3.20;59.81
79140;HTU21D;68546;59.142;37.948;2024-02-23T14:15:00;3.21;59.91
79140;HTU21D;68546;59.142;37.948;2024-02-23T14:17:26;3.19;59.93
79140;HTU21D;68546;59.142;37.948;2024-02-23T14:19:53;3.20;59.99
79140;HTU21D;68546;59.142;37.948;2024-02-23T14:22:20;3.19;60.01
79140;HTU21D;68546;59.142;37.948;2024-02-23T14:24:47;3.19;60.07
79140;HTU21D;68546;59.142;37.948;2024-02-23T14:27:15;3.18;60.15
79140;HTU21D;68546;59.142;37.948;2024-02-23T14:29:42;3.19;60.23
79140;HTU21D;68546;59.142;37.948;2024-02-23T14:32:10;3.18;60.28
79140;HTU21D;68546;59.142;37.948;2024-02-23T14:34:36;3.18;60.38
79140;HTU21D;68546;59.142;37.948;2024-02-23T14:37:03;3.17;60.42
79140;HTU21D;68546;59.142;37.948;2024-02-23T14:39:30;3.18;60.47
79140;HTU21D;68546;59.142;37.948;2024-02-23T14:41:57;3.19;60.54
79140;HTU21D;68546;59.142;37.948;2024-02-23T14:44:24;3.18;60.64
79140;HTU21D;68546;59.142;37.948;2024-02-23T14:46:50;3.19;60.62
79140;HTU21D;68546;59.142;37.948;2024-02-23T14:49:17;3.18;60.67
79140;HTU21D;68546;59.142;37.948;2024-02-23T14:51:44;3.17;60.70
79140;HTU21D;68546;59.142;37.948;2024-02-23T14:54:12;3.16;60.78
79140;HTU21D;68546;59.142;37.948;2024-02-23T14:56:39;3.16;60.85
79140;HTU21D;68546;59.142;37.948;2024-02-23T14:59:09;3.15;60.90
79140;HTU21D;68546;59.142;37.948;2024-02-23T15:01:38;3.14;60.88
79140;HTU21D;68546;59.142;37.948;2024-02-23T15:04:09;3.11;60.94
79140;HTU21D;68546;59.142;37.948;2024-02-23T15:06:36;3.10;60.99
79140;HTU21D;68546;59.142;37.948;2024-02-23T15:09:04;3.06;61.05
79140;HTU21D;68546;59.142;37.948;2024-02-23T15:11:31;3.04;61.25
79140;HTU21D;68546;59.142;37.948;2024-02-23T15:13:57;3.03;61.32
79140;HTU21D;68546;59.142;37.948;2024-02-23T15:16:25;3.03;61.42